Pagina principale
METAR-TAF:

METAR-TAF

Aeroporti :

Aeroporto di Basilea-Mulhouse-Friburgo

Basilea-Mulhouse, Francia

latitudine: 47-36N, longitudine: 007-31E, altezza: 270 m

Osservazione

Il bollettino è stato emesso 53 minuti fa, alle 00:30 UTC
Vento 9 kt da ovest/sud-ovest
Temperature 14°C
Umidità 72%
Pressione 1021 hPa
Visibilità 10 km o più
nessuna nube inferiore a 1500 m e nessun cumulonembo

METAR: LFSB 280030Z AUTO 24009KT CAVOK 14/09 Q1021 NOSIG

Ora: 03:23 (01:23 UTC)

Previsione

Il bollettino è stato emesso 2 ore e 23 minuti fa, alle 23:00 UTC
Previsione valida dal 28 alle 00 UTC al 28 alle 24 UTC
Vento 8 kt da ovest
Visibilità 10 km o più
nessuna nube inferiore a 1500 m e nessun cumulonembo
Probabilità 30% :
Temporaneamente
dal 28 alle 12 UTC al 28 alle 18 UTC
Poco nuvoloso ad un'altezza di 4000 ft, Cumulo congesto.

TAF: LFSB 272300Z 2800/2824 26008KT CAVOK PROB30 TEMPO 2812/2818 FEW040TCU

Osservazioni e previsioni meteorologiche di più di 4000 aeroporti (messaggi METAR e TAF).

Le stazioni disponibili sono rappresentate dai dischi gialli e rossi sulla carta.

Puntare il mouse per vedere il nome della stazione.

Clicca sopra per visualizzare le osservazioni e previsioni meteorologiche.

Per cambiare la mappa : fare clic sui pulsanti verdi con una croce nera per ingrandire, il pulsante verde con un trattino per diminuire, o sulla freccia verde per le mappe adiacenti.


METAR-TAF: